createdAt,value
2019-03-11T00:00:35.749Z,3.90
2019-03-11T00:01:35.741Z,4.00
2019-03-11T00:02:35.726Z,3.89
2019-03-11T00:03:35.733Z,3.89
2019-03-11T00:04:35.704Z,3.97
2019-03-11T00:05:35.689Z,3.78
2019-03-11T00:06:35.683Z,3.78
2019-03-11T00:07:35.670Z,3.90
2019-03-11T00:08:35.674Z,3.86
2019-03-11T00:09:35.647Z,3.82
2019-03-11T00:10:35.671Z,3.83
2019-03-11T00:11:35.623Z,3.90
2019-03-11T00:12:35.608Z,3.82
2019-03-11T00:13:35.616Z,4.00
2019-03-11T00:14:35.589Z,3.94
2019-03-11T00:15:35.575Z,3.92
2019-03-11T00:16:35.561Z,3.94
2019-03-11T00:17:35.553Z,3.89
2019-03-11T00:18:35.574Z,3.82
2019-03-11T00:19:35.545Z,3.85
2019-03-11T00:20:35.520Z,3.72
2019-03-11T00:21:35.504Z,3.70
2019-03-11T00:22:35.495Z,3.78
2019-03-11T00:23:35.482Z,3.65
2019-03-11T00:24:35.486Z,3.76
2019-03-11T00:25:35.460Z,3.64
2019-03-11T00:26:35.446Z,3.57
2019-03-11T00:27:35.436Z,3.58
2019-03-11T00:28:35.426Z,3.64
2019-03-11T00:29:35.433Z,3.76
2019-03-11T00:30:35.402Z,3.78
2019-03-11T00:31:35.395Z,3.75
2019-03-11T00:32:35.376Z,3.80
2019-03-11T00:33:35.366Z,3.75
2019-03-11T00:34:35.353Z,3.96
2019-03-11T00:35:35.359Z,3.85
2019-03-11T00:36:35.328Z,3.79
2019-03-11T00:37:35.318Z,3.85
2019-03-11T00:38:35.305Z,3.96
2019-03-11T00:39:35.293Z,3.98
2019-03-11T00:40:35.317Z,3.96
2019-03-11T00:41:35.275Z,4.28
2019-03-11T00:42:35.261Z,4.15
2019-03-11T00:43:35.248Z,4.06
2019-03-11T00:44:35.235Z,4.08
2019-03-11T00:45:35.248Z,4.06
2019-03-11T00:46:35.213Z,4.18
2019-03-11T00:47:35.207Z,4.08
2019-03-11T00:48:35.191Z,4.12
2019-03-11T00:49:35.180Z,4.18
2019-03-11T00:50:35.165Z,4.10
2019-03-11T00:51:35.176Z,4.15
2019-03-11T00:52:35.259Z,4.16
2019-03-11T00:53:35.140Z,4.22
2019-03-11T00:54:35.118Z,4.21
2019-03-11T00:55:35.105Z,4.24
2019-03-11T00:56:35.135Z,4.25
2019-03-11T00:57:35.084Z,4.26
2019-03-11T00:58:35.072Z,4.21
2019-03-11T00:59:35.060Z,4.34
2019-03-11T01:00:35.046Z,4.33
2019-03-11T01:01:35.036Z,4.37
2019-03-11T01:02:35.042Z,4.47
2019-03-11T01:03:35.014Z,4.37
2019-03-11T01:04:35.004Z,4.29
2019-03-11T01:05:34.991Z,4.52
2019-03-11T01:06:34.978Z,4.29
2019-03-11T01:07:34.993Z,4.25
2019-03-11T01:08:34.957Z,4.44
2019-03-11T01:09:34.941Z,4.39
2019-03-11T01:10:34.931Z,4.32
2019-03-11T01:11:34.919Z,4.43
2019-03-11T01:12:34.951Z,4.34
2019-03-11T01:13:34.900Z,4.26
2019-03-11T01:14:35.827Z,4.39
2019-03-11T01:15:34.875Z,4.44
2019-03-11T01:16:34.862Z,4.44
2019-03-11T01:17:34.850Z,4.43
2019-03-11T01:18:34.858Z,4.51
2019-03-11T01:19:34.825Z,4.46
2019-03-11T01:20:34.814Z,4.57
2019-03-11T01:21:34.809Z,4.52
2019-03-11T01:22:34.791Z,4.42
2019-03-11T01:23:34.798Z,4.61
2019-03-11T01:24:34.768Z,4.51
2019-03-11T01:25:34.755Z,4.51
2019-03-11T01:26:34.743Z,4.52
2019-03-11T01:27:34.731Z,4.50
2019-03-11T01:28:34.741Z,4.54
2019-03-11T01:29:34.709Z,4.52
2019-03-11T01:30:34.699Z,4.51
2019-03-11T01:31:34.689Z,4.57
2019-03-11T01:32:34.673Z,4.47
2019-03-11T01:33:34.683Z,4.39
2019-03-11T01:34:34.650Z,4.51
2019-03-11T01:35:34.639Z,4.55
2019-03-11T01:36:34.627Z,4.52
2019-03-11T01:37:34.619Z,4.39
